createdAt,value
2022-09-22T00:01:31.556Z,85.83
2022-09-22T00:04:05.948Z,85.87
2022-09-22T00:06:47.313Z,85.44
2022-09-22T00:09:18.395Z,85.70
2022-09-22T00:11:50.936Z,86.22
2022-09-22T00:14:21.260Z,86.35
2022-09-22T00:16:58.717Z,85.59
2022-09-22T00:19:34.213Z,85.65
2022-09-22T00:22:01.986Z,85.58
2022-09-22T00:24:29.485Z,85.16
2022-09-22T00:26:59.199Z,85.09
2022-09-22T00:29:30.156Z,84.79
2022-09-22T00:31:58.502Z,85.30
2022-09-22T00:34:27.698Z,85.44
2022-09-22T00:36:56.130Z,86.32
2022-09-22T00:39:23.162Z,86.41
2022-09-22T00:41:52.768Z,87.66
2022-09-22T00:44:37.528Z,87.58
2022-09-22T00:47:25.991Z,88.31
2022-09-22T00:49:59.622Z,87.57
2022-09-22T00:52:52.276Z,87.11
2022-09-22T00:55:56.558Z,86.59
2022-09-22T00:58:39.087Z,87.87
2022-09-22T01:01:09.389Z,87.51
2022-09-22T01:03:39.204Z,86.95
2022-09-22T01:06:11.994Z,88.01
2022-09-22T01:08:40.431Z,87.08
2022-09-22T01:11:08.266Z,86.78
2022-09-22T01:14:13.411Z,87.98
2022-09-22T01:17:21.265Z,87.84
2022-09-22T01:20:36.170Z,88.10
2022-09-22T01:23:41.985Z,88.41
2022-09-22T01:26:26.724Z,88.30
2022-09-22T01:29:31.620Z,89.98
2022-09-22T01:32:32.442Z,89.61
2022-09-22T01:35:18.845Z,89.42
2022-09-22T01:38:05.026Z,88.77
2022-09-22T01:40:42.120Z,88.99
2022-09-22T01:43:30.488Z,89.57
2022-09-22T01:46:00.886Z,89.63
2022-09-22T01:48:33.244Z,89.01
2022-09-22T01:51:10.202Z,89.47
2022-09-22T01:53:46.631Z,89.34
2022-09-22T01:56:18.136Z,88.92
2022-09-22T01:58:58.090Z,87.87
2022-09-22T02:01:38.062Z,88.53
2022-09-22T02:04:19.520Z,87.74
2022-09-22T02:06:55.858Z,89.59
2022-09-22T02:09:27.049Z,89.01
2022-09-22T02:11:54.026Z,89.57
2022-09-22T02:14:21.135Z,88.35
2022-09-22T02:16:48.126Z,88.45
2022-09-22T02:19:44.434Z,88.87
2022-09-22T02:22:12.710Z,88.50
2022-09-22T02:24:43.818Z,89.90
2022-09-22T02:27:36.369Z,88.58
2022-09-22T02:30:11.082Z,88.24
2022-09-22T02:32:43.043Z,88.99
2022-09-22T02:35:10.806Z,89.20
2022-09-22T02:38:03.600Z,90.14
2022-09-22T02:41:10.530Z,89.84
2022-09-22T02:44:05.191Z,89.29
2022-09-22T02:46:46.310Z,89.72
2022-09-22T02:49:18.498Z,88.86
2022-09-22T02:51:49.219Z,88.72
2022-09-22T02:54:16.825Z,89.46
2022-09-22T02:56:44.567Z,89.78
2022-09-22T02:59:11.795Z,88.90
2022-09-22T03:01:39.054Z,89.00
2022-09-22T03:04:06.257Z,88.52
2022-09-22T03:06:33.790Z,89.07
2022-09-22T03:09:00.951Z,89.23
2022-09-22T03:11:27.924Z,88.70
2022-09-22T03:13:55.013Z,89.37
2022-09-22T03:16:25.208Z,88.64
2022-09-22T03:18:52.305Z,89.21
2022-09-22T03:21:19.245Z,89.23
2022-09-22T03:23:46.225Z,88.80
2022-09-22T03:26:13.174Z,88.65
2022-09-22T03:28:40.427Z,90.15
2022-09-22T03:31:07.436Z,89.64
2022-09-22T03:33:34.402Z,88.95
2022-09-22T03:36:01.560Z,88.33
2022-09-22T03:38:28.674Z,88.51
2022-09-22T03:40:58.722Z,88.62
2022-09-22T03:43:25.999Z,88.71
2022-09-22T03:46:01.382Z,89.00
2022-09-22T03:48:31.038Z,89.15
2022-09-22T03:50:58.454Z,88.86
2022-09-22T03:53:25.797Z,89.26
2022-09-22T03:55:52.954Z,89.46
2022-09-22T03:58:21.572Z,90.20
2022-09-22T04:00:49.669Z,89.98
2022-09-22T04:03:16.693Z,89.27
2022-09-22T04:05:51.321Z,90.05
2022-09-22T04:08:18.931Z,89.99
2022-09-22T04:10:46.742Z,89.49
2022-09-22T04:13:14.734Z,89.01
2022-09-22T04:15:42.411Z,90.27
2022-09-22T04:18:09.975Z,89.72
2022-09-22T04:20:41.823Z,89.06
2022-09-22T04:23:08.806Z,89.07
2022-09-22T04:25:36.135Z,88.56
2022-09-22T04:28:05.789Z,88.87
2022-09-22T04:30:34.996Z,89.17
2022-09-22T04:33:02.128Z,88.92
2022-09-22T04:35:29.918Z,89.18
2022-09-22T04:37:58.627Z,88.44
2022-09-22T04:40:25.833Z,87.73
2022-09-22T04:42:53.074Z,88.29
2022-09-22T04:45:20.542Z,88.55
2022-09-22T04:47:53.135Z,88.68
2022-09-22T04:50:22.537Z,88.81
2022-09-22T04:52:53.978Z,89.44
2022-09-22T04:55:22.815Z,89.50
2022-09-22T04:57:55.457Z,89.74
2022-09-22T05:00:28.353Z,89.57
2022-09-22T05:02:56.512Z,90.38
2022-09-22T05:05:24.450Z,90.74
2022-09-22T05:07:54.433Z,91.08
2022-09-22T05:10:27.273Z,91.28
2022-09-22T05:12:54.475Z,91.33
2022-09-22T05:15:25.346Z,91.63
2022-09-22T05:17:55.690Z,89.84
2022-09-22T05:20:22.940Z,89.88
2022-09-22T05:22:49.972Z,89.80
2022-09-22T05:25:19.283Z,87.91
2022-09-22T05:27:54.448Z,88.93
2022-09-22T05:30:26.040Z,89.66
2022-09-22T05:32:53.482Z,88.99
2022-09-22T05:35:24.460Z,88.83
2022-09-22T05:37:53.458Z,89.78
2022-09-22T05:40:24.099Z,88.76
2022-09-22T05:42:53.702Z,88.03
2022-09-22T05:45:21.815Z,88.99
2022-09-22T05:47:48.865Z,87.97
2022-09-22T05:50:18.422Z,88.36
2022-09-22T05:52:45.469Z,88.31
2022-09-22T05:55:13.745Z,88.85
2022-09-22T05:57:40.699Z,88.97
2022-09-22T06:00:10.758Z,89.20
2022-09-22T06:02:38.573Z,89.10
2022-09-22T06:05:05.772Z,87.84
2022-09-22T06:07:32.711Z,88.20
2022-09-22T06:09:59.676Z,87.24
2022-09-22T06:12:26.652Z,88.06
2022-09-22T06:14:53.594Z,86.53
2022-09-22T06:17:20.647Z,86.44
2022-09-22T06:19:50.383Z,86.13
2022-09-22T06:22:18.296Z,86.57
2022-09-22T06:24:45.732Z,86.24
2022-09-22T06:27:13.048Z,87.04
2022-09-22T06:29:41.327Z,86.66
2022-09-22T06:32:10.146Z,88.58
2022-09-22T06:34:38.097Z,87.09
2022-09-22T06:37:08.846Z,86.79
2022-09-22T06:39:38.936Z,87.56
2022-09-22T06:42:06.484Z,86.18
2022-09-22T06:44:33.621Z,86.80
2022-09-22T06:47:08.439Z,86.32
2022-09-22T06:49:35.450Z,86.16
2022-09-22T06:52:03.109Z,85.66
2022-09-22T06:54:30.571Z,85.34
2022-09-22T06:56:57.535Z,85.02
2022-09-22T06:59:24.780Z,85.15
2022-09-22T07:01:51.865Z,84.28
2022-09-22T07:04:19.934Z,84.46
2022-09-22T07:06:46.902Z,82.03
2022-09-22T07:09:16.959Z,83.52
2022-09-22T07:11:44.277Z,82.94
2022-09-22T07:14:12.622Z,81.65
2022-09-22T07:16:40.950Z,82.44
2022-09-22T07:19:08.165Z,81.51
2022-09-22T07:21:37.819Z,81.58
2022-09-22T07:24:08.179Z,80.35
2022-09-22T07:26:39.251Z,80.03
2022-09-22T07:29:13.187Z,78.59
2022-09-22T07:31:41.837Z,80.82
2022-09-22T07:34:09.152Z,79.68
2022-09-22T07:36:37.122Z,78.82
2022-09-22T07:39:11.112Z,77.51
2022-09-22T07:41:43.120Z,76.59
2022-09-22T07:44:31.994Z,77.85
2022-09-22T07:47:00.966Z,75.63
2022-09-22T07:49:28.201Z,76.99
2022-09-22T07:51:57.885Z,76.09
2022-09-22T07:54:27.282Z,74.67
2022-09-22T07:56:58.726Z,75.41
2022-09-22T07:59:26.852Z,75.72
2022-09-22T08:01:54.195Z,74.45
2022-09-22T08:04:26.444Z,74.58
2022-09-22T08:06:55.973Z,74.76
2022-09-22T08:09:25.556Z,73.79
2022-09-22T08:11:53.124Z,73.13
2022-09-22T08:14:24.217Z,72.22
2022-09-22T08:16:53.209Z,73.02
2022-09-22T08:19:23.726Z,73.57
2022-09-22T08:21:54.545Z,74.74
2022-09-22T08:24:22.461Z,72.29
2022-09-22T08:26:52.898Z,73.75
2022-09-22T08:29:21.042Z,73.70
2022-09-22T08:31:49.462Z,73.87
2022-09-22T08:34:17.824Z,72.83
2022-09-22T08:36:46.610Z,72.53
2022-09-22T08:39:15.483Z,72.58
2022-09-22T08:42:02.237Z,70.90
2022-09-22T08:44:59.629Z,69.32
2022-09-22T08:48:13.444Z,69.09
2022-09-22T08:51:14.324Z,65.38
2022-09-22T08:53:48.624Z,69.50
2022-09-22T08:56:36.741Z,64.98
2022-09-22T08:59:13.349Z,63.44
2022-09-22T09:02:29.781Z,59.35
2022-09-22T09:06:05.567Z,60.87
2022-09-22T09:09:06.173Z,60.86
2022-09-22T09:12:40.652Z,60.28
2022-09-22T09:15:33.891Z,60.60
2022-09-22T09:18:13.439Z,58.53
2022-09-22T09:20:47.014Z,57.93
2022-09-22T09:23:23.390Z,56.06
2022-09-22T09:25:55.760Z,61.63
2022-09-22T09:28:40.094Z,57.61
2022-09-22T09:31:27.797Z,56.56
2022-09-22T09:34:14.661Z,56.12
2022-09-22T09:36:46.953Z,55.32
2022-09-22T09:39:28.056Z,52.02
2022-09-22T09:41:56.415Z,51.12
2022-09-22T09:44:38.964Z,53.02
2022-09-22T09:47:42.542Z,53.69
2022-09-22T09:50:11.514Z,56.07
2022-09-22T09:52:39.952Z,55.11
2022-09-22T09:55:27.004Z,54.75
2022-09-22T09:58:32.747Z,53.53
2022-09-22T10:01:00.867Z,60.11
2022-09-22T10:03:33.756Z,55.91
2022-09-22T10:06:10.124Z,53.29
2022-09-22T10:08:48.035Z,53.18
2022-09-22T10:11:15.414Z,52.79
2022-09-22T10:13:44.131Z,54.78
2022-09-22T10:16:30.645Z,52.66
2022-09-22T10:19:37.432Z,54.68
2022-09-22T10:22:39.710Z,51.56
2022-09-22T10:25:33.165Z,51.75
2022-09-22T10:28:18.078Z,55.49
2022-09-22T10:31:00.289Z,51.97
2022-09-22T10:33:27.472Z,52.72
2022-09-22T10:36:12.352Z,47.47
2022-09-22T10:38:43.172Z,47.08
2022-09-22T10:41:21.545Z,45.91
2022-09-22T10:44:40.134Z,49.44
2022-09-22T10:47:49.102Z,47.17
2022-09-22T10:51:07.214Z,46.82
2022-09-22T10:54:34.113Z,50.61
2022-09-22T10:57:10.107Z,44.37
2022-09-22T11:00:07.662Z,45.94
2022-09-22T11:03:44.542Z,54.70
2022-09-22T11:07:28.741Z,51.92
2022-09-22T11:10:35.318Z,53.76
2022-09-22T11:13:42.886Z,50.29
2022-09-22T11:16:39.337Z,47.79
2022-09-22T11:19:50.740Z,49.11
2022-09-22T11:23:46.269Z,51.01
2022-09-22T11:26:43.842Z,47.79
2022-09-22T11:30:11.670Z,46.42
2022-09-22T11:33:25.535Z,46.83
2022-09-22T11:36:33.365Z,46.57
2022-09-22T11:39:10.570Z,45.52
2022-09-22T11:42:51.128Z,41.44
2022-09-22T11:46:03.524Z,43.75
2022-09-22T11:49:27.345Z,46.80
2022-09-22T11:52:10.154Z,42.98
2022-09-22T11:55:46.919Z,42.48
2022-09-22T11:58:26.456Z,41.12
2022-09-22T12:01:13.378Z,47.20
2022-09-22T12:04:46.186Z,46.87
2022-09-22T12:07:31.389Z,46.12
2022-09-22T12:10:40.856Z,47.60
2022-09-22T12:13:29.738Z,45.83
2022-09-22T12:16:15.270Z,47.40
2022-09-22T12:19:16.970Z,45.70
2022-09-22T12:22:34.161Z,43.10
2022-09-22T12:25:01.435Z,40.34
2022-09-22T12:27:30.107Z,42.79
2022-09-22T12:30:13.438Z,40.38
2022-09-22T12:32:43.357Z,40.74
2022-09-22T12:35:30.980Z,39.11
2022-09-22T12:38:02.217Z,41.78
2022-09-22T12:40:41.538Z,38.08
2022-09-22T12:43:22.507Z,39.37
2022-09-22T12:45:52.784Z,35.74
2022-09-22T12:48:31.883Z,41.75
2022-09-22T12:51:26.053Z,38.80
2022-09-22T12:54:21.710Z,38.07
2022-09-22T12:57:25.064Z,36.72
2022-09-22T13:00:13.210Z,36.86
2022-09-22T13:02:45.953Z,40.45
2022-09-22T13:05:25.513Z,37.77
2022-09-22T13:07:55.307Z,36.97
2022-09-22T13:10:24.901Z,38.67
2022-09-22T13:13:06.422Z,40.80
2022-09-22T13:15:51.099Z,41.32
2022-09-22T13:18:42.332Z,42.72
2022-09-22T13:21:12.380Z,39.73
2022-09-22T13:23:55.013Z,37.93
2022-09-22T13:26:31.815Z,41.06
2022-09-22T13:29:21.641Z,36.07
2022-09-22T13:31:57.071Z,37.86
2022-09-22T13:34:37.224Z,37.61
2022-09-22T13:37:14.963Z,35.25
2022-09-22T13:39:47.530Z,35.69
2022-09-22T13:42:20.379Z,36.04
2022-09-22T13:45:03.710Z,34.61
2022-09-22T13:47:31.205Z,35.54
2022-09-22T13:50:06.958Z,38.20
2022-09-22T13:52:38.593Z,37.54
2022-09-22T13:55:37.290Z,37.53
2022-09-22T13:58:08.820Z,38.75
2022-09-22T14:01:12.698Z,36.37
2022-09-22T14:03:41.150Z,40.72
2022-09-22T14:06:32.591Z,36.31
2022-09-22T14:09:01.742Z,42.66
2022-09-22T14:11:33.309Z,36.35
2022-09-22T14:14:02.656Z,37.75
2022-09-22T14:16:56.467Z,36.39
2022-09-22T14:19:44.019Z,40.22
2022-09-22T14:22:27.488Z,40.81
2022-09-22T14:25:01.705Z,40.88
2022-09-22T14:27:53.645Z,42.15
2022-09-22T14:30:26.876Z,39.40
2022-09-22T14:32:59.221Z,41.45
2022-09-22T14:35:31.821Z,41.41
2022-09-22T14:38:16.722Z,40.94
2022-09-22T14:40:59.148Z,44.54
2022-09-22T14:43:42.042Z,42.15
2022-09-22T14:46:33.754Z,44.70
2022-09-22T14:49:41.979Z,42.50
2022-09-22T14:52:31.403Z,43.79
2022-09-22T14:55:17.047Z,41.60
2022-09-22T14:57:48.804Z,45.32
2022-09-22T15:00:37.215Z,43.21
2022-09-22T15:03:27.191Z,43.88
2022-09-22T15:06:05.163Z,44.04
2022-09-22T15:08:32.140Z,43.61
2022-09-22T15:11:01.931Z,44.77
2022-09-22T15:13:45.486Z,43.93
2022-09-22T15:16:43.501Z,45.68
2022-09-22T15:19:13.082Z,46.14
2022-09-22T15:21:47.455Z,47.73
2022-09-22T15:24:21.200Z,49.93
2022-09-22T15:26:48.322Z,49.01
2022-09-22T15:29:17.388Z,49.64
2022-09-22T15:31:44.612Z,49.15
2022-09-22T15:34:12.761Z,50.88
2022-09-22T15:36:46.516Z,50.01
2022-09-22T15:39:24.404Z,48.58
2022-09-22T15:41:53.048Z,49.51
2022-09-22T15:44:20.729Z,50.39
2022-09-22T15:46:54.308Z,50.54
2022-09-22T15:49:26.134Z,51.44
2022-09-22T15:51:56.781Z,50.67
2022-09-22T15:54:26.127Z,51.19
2022-09-22T15:56:56.306Z,51.09
2022-09-22T15:59:32.238Z,49.83
2022-09-22T16:02:00.655Z,50.61
2022-09-22T16:04:33.535Z,51.25
2022-09-22T16:07:08.372Z,52.11
2022-09-22T16:09:35.905Z,53.24
2022-09-22T16:12:03.341Z,54.17
2022-09-22T16:14:30.251Z,53.73
2022-09-22T16:16:57.225Z,51.23
2022-09-22T16:19:24.153Z,52.41
2022-09-22T16:21:56.468Z,53.33
2022-09-22T16:24:23.557Z,52.39
2022-09-22T16:26:51.676Z,55.23
2022-09-22T16:29:18.703Z,53.32
2022-09-22T16:31:45.838Z,54.03
2022-09-22T16:34:12.917Z,56.17
2022-09-22T16:36:41.534Z,57.05
2022-09-22T16:39:09.278Z,55.63
2022-09-22T16:41:36.942Z,58.78
2022-09-22T16:44:05.179Z,59.47
2022-09-22T16:46:34.355Z,56.67
2022-09-22T16:49:12.723Z,56.66
2022-09-22T16:51:48.819Z,58.43
2022-09-22T16:54:18.339Z,57.33
2022-09-22T16:56:49.359Z,57.22
2022-09-22T16:59:21.704Z,59.09
2022-09-22T17:01:50.566Z,60.50
2022-09-22T17:04:19.362Z,60.35
2022-09-22T17:06:47.381Z,61.18
2022-09-22T17:09:14.916Z,62.37
2022-09-22T17:11:45.985Z,63.83
2022-09-22T17:14:23.064Z,64.47
2022-09-22T17:16:53.434Z,63.40
2022-09-22T17:19:26.669Z,64.97
2022-09-22T17:21:56.344Z,66.44
2022-09-22T17:24:25.695Z,66.42
2022-09-22T17:26:59.093Z,67.84
2022-09-22T17:29:31.546Z,69.18
2022-09-22T17:32:08.031Z,72.58
2022-09-22T17:34:36.866Z,73.47
2022-09-22T17:37:04.665Z,74.99
2022-09-22T17:39:33.971Z,74.92
2022-09-22T17:42:01.053Z,75.60
2022-09-22T17:44:30.930Z,76.50
2022-09-22T17:47:16.718Z,75.43
2022-09-22T17:50:02.176Z,72.33
2022-09-22T17:52:29.094Z,73.03
2022-09-22T17:55:07.935Z,73.84
2022-09-22T17:57:45.122Z,74.34
2022-09-22T18:00:22.590Z,74.77
2022-09-22T18:02:52.743Z,74.77
2022-09-22T18:05:26.535Z,74.57
2022-09-22T18:07:57.779Z,75.50
2022-09-22T18:10:33.904Z,76.44
2022-09-22T18:13:02.379Z,77.53
2022-09-22T18:15:29.429Z,78.01
2022-09-22T18:17:58.243Z,79.81
2022-09-22T18:20:27.389Z,76.71
2022-09-22T18:22:56.085Z,75.62
2022-09-22T18:25:25.587Z,76.57
2022-09-22T18:27:53.476Z,76.72
2022-09-22T18:30:20.856Z,73.24
2022-09-22T18:32:50.791Z,75.96
2022-09-22T18:35:18.508Z,74.62
2022-09-22T18:37:45.531Z,75.50
2022-09-22T18:40:12.842Z,74.54
2022-09-22T18:42:41.357Z,74.90
2022-09-22T18:45:10.957Z,75.48
2022-09-22T18:47:40.789Z,75.88
2022-09-22T18:50:09.340Z,75.47
2022-09-22T18:52:37.238Z,77.25
2022-09-22T18:55:05.108Z,77.98
2022-09-22T18:57:32.057Z,78.11
2022-09-22T19:00:00.311Z,78.96
2022-09-22T19:02:27.568Z,78.95
2022-09-22T19:04:54.715Z,78.22
2022-09-22T19:07:44.148Z,79.34
2022-09-22T19:10:16.261Z,77.04
2022-09-22T19:12:43.308Z,76.89
2022-09-22T19:15:15.237Z,78.28
2022-09-22T19:17:45.346Z,79.03
2022-09-22T19:20:23.800Z,78.05
2022-09-22T19:22:52.406Z,79.66
2022-09-22T19:25:21.260Z,81.33
2022-09-22T19:27:48.465Z,82.47
2022-09-22T19:30:16.947Z,80.64
2022-09-22T19:32:46.491Z,79.59
2022-09-22T19:35:13.944Z,79.45
2022-09-22T19:37:41.310Z,79.52
2022-09-22T19:40:13.686Z,78.34
2022-09-22T19:42:40.743Z,78.02
2022-09-22T19:45:09.122Z,79.73
2022-09-22T19:47:36.513Z,81.19
2022-09-22T19:50:07.754Z,81.35
2022-09-22T19:52:38.144Z,81.34
2022-09-22T19:55:07.801Z,81.36
2022-09-22T19:57:38.259Z,79.59
2022-09-22T20:00:05.918Z,80.00
2022-09-22T20:02:33.311Z,79.40
2022-09-22T20:05:00.388Z,79.24
2022-09-22T20:07:27.690Z,79.52
2022-09-22T20:09:56.281Z,78.58
2022-09-22T20:12:23.299Z,79.04
2022-09-22T20:14:51.410Z,78.56
2022-09-22T20:17:18.493Z,79.44
2022-09-22T20:19:45.493Z,79.53
2022-09-22T20:22:25.568Z,79.39
2022-09-22T20:25:00.142Z,80.75
2022-09-22T20:27:35.044Z,81.44
2022-09-22T20:30:03.846Z,82.61
2022-09-22T20:32:32.242Z,82.43
2022-09-22T20:34:59.447Z,82.56
2022-09-22T20:37:26.596Z,83.38
2022-09-22T20:39:54.380Z,83.30
2022-09-22T20:42:21.541Z,83.62
2022-09-22T20:44:49.175Z,82.72
2022-09-22T20:47:20.015Z,83.28
2022-09-22T20:49:51.494Z,82.69
2022-09-22T20:52:20.509Z,81.96
2022-09-22T20:54:48.137Z,82.91
2022-09-22T20:57:16.039Z,83.49
2022-09-22T20:59:45.801Z,83.80
2022-09-22T21:02:14.910Z,84.75
2022-09-22T21:04:42.189Z,85.29
2022-09-22T21:07:10.141Z,85.39
2022-09-22T21:09:55.882Z,84.63
2022-09-22T21:12:28.573Z,84.81
2022-09-22T21:14:57.995Z,84.02
2022-09-22T21:17:25.418Z,81.03
2022-09-22T21:19:52.394Z,79.84
2022-09-22T21:22:19.405Z,80.24
2022-09-22T21:24:48.728Z,79.94
2022-09-22T21:27:15.873Z,81.11
2022-09-22T21:29:43.105Z,80.52
2022-09-22T21:32:10.319Z,80.48
2022-09-22T21:34:37.443Z,81.41
2022-09-22T21:37:05.592Z,81.04
2022-09-22T21:39:32.668Z,79.70
2022-09-22T21:41:59.710Z,80.54
2022-09-22T21:44:26.834Z,81.97
2022-09-22T21:46:54.161Z,83.14
2022-09-22T21:49:21.222Z,83.63
2022-09-22T21:51:48.315Z,83.55
2022-09-22T21:54:19.425Z,84.84
2022-09-22T21:56:47.061Z,84.55
2022-09-22T21:59:14.580Z,84.61
2022-09-22T22:01:43.193Z,83.48
2022-09-22T22:04:13.737Z,82.01
2022-09-22T22:06:46.239Z,82.28
2022-09-22T22:09:23.045Z,83.85
2022-09-22T22:11:58.841Z,83.75
2022-09-22T22:14:31.935Z,83.99
2022-09-22T22:16:58.900Z,84.57
2022-09-22T22:19:26.955Z,84.48
2022-09-22T22:21:54.718Z,85.81
2022-09-22T22:24:28.577Z,85.73
2022-09-22T22:27:06.216Z,86.40
2022-09-22T22:29:40.971Z,85.93
2022-09-22T22:32:10.735Z,86.94
2022-09-22T22:34:37.862Z,86.59
2022-09-22T22:37:08.750Z,87.29
2022-09-22T22:39:35.660Z,85.52
2022-09-22T22:42:02.669Z,85.39
2022-09-22T22:44:29.676Z,85.79
2022-09-22T22:46:56.730Z,85.81
2022-09-22T22:49:23.860Z,86.17
2022-09-22T22:51:52.222Z,84.73
2022-09-22T22:54:19.207Z,84.29
2022-09-22T22:56:50.325Z,82.18
2022-09-22T22:59:18.574Z,81.24
2022-09-22T23:01:45.627Z,81.43
2022-09-22T23:04:12.979Z,82.55
2022-09-22T23:06:47.307Z,83.63
2022-09-22T23:09:16.754Z,83.43
2022-09-22T23:11:46.151Z,82.15
2022-09-22T23:14:15.553Z,81.34
2022-09-22T23:16:46.111Z,80.08
2022-09-22T23:19:17.448Z,82.88
2022-09-22T23:21:45.502Z,82.73
2022-09-22T23:24:18.936Z,83.15
2022-09-22T23:26:46.918Z,85.40
2022-09-22T23:29:14.145Z,85.82
2022-09-22T23:31:41.150Z,86.52
2022-09-22T23:34:08.140Z,87.18
2022-09-22T23:36:35.175Z,86.98
2022-09-22T23:39:06.007Z,88.16
2022-09-22T23:41:35.792Z,87.84
2022-09-22T23:44:06.685Z,87.37
2022-09-22T23:46:34.621Z,87.64
2022-09-22T23:49:02.225Z,88.17
2022-09-22T23:51:29.397Z,88.65
2022-09-22T23:53:57.194Z,88.55
2022-09-22T23:56:25.171Z,88.47
2022-09-22T23:58:52.840Z,89.16
